Strona główna
METAR-TAF:

METAR-TAF

Lotnisko :

Port lotniczy Marka

Amman, Jordania

Szerokość geograficzna: 31-59N, Długość geograficzna: 035-59E, wysokość: 767 m

Aktualna obserwacja pogody

Raport powstał 30 minut temu, godzina 07:00 UTC
Wiatr 12 kt od zachód
Temperatura 19°C
Wilgotność 60%
Ciśnienie 1017 hPa
Widzialność: 7000 m

METAR: OJAM 280700Z 28012KT 7000 NSC 19/11 Q1017 NOSIG

czas: 10:30 (07:30 UTC)

Prognoza

Raport powstał 2 godziny i 30 minut temu, godzina 05:00 UTC
Prognoza ważna od 28 godzina 06 UTC do 29 godzina 12 UTC
Wiatr 10 kt od zachodnio-północny zachód
Widzialność: 5000 m
Mało chmury na wysokości 3500 ft
zmętnienie
Przejściowo
od 28 godzina 10 UTC do 28 godzina 15 UTC
Wiatr 16 kt od północno-północny zachód
Widzialność: 4000 m
zawieja pyłowa
Prawdopodobieństwo 30% :
Przejściowo
od 29 godzina 02 UTC do 29 godzina 05 UTC
Widzialność: 3000 m
Mało chmury na wysokości 3000 ft
zamglenie

TAF: OJAM 280500Z 2806/2912 29010KT 5000 HZ FEW035 TEMPO 2810/2815 33016KT 4000 BLDU NSC PROB30 TEMPO 2902/2905 3000 BR FEW030

Obserwacja i prognoza pogody dla ponad 4000 lotnisk (raport METAR i TAF).

Dostępne stacje oznaczono żółtymi i czerwonymi punktami na mapie.

Najedź kursorem aby zobaczyć nazwę stacji.

Kliknij aby zobaczyć obserwacje i prognozy pogody.

Aby zmienić mapę: kliknij na zielony przycisk z czarnym krzyżykiem, aby powiększyć; na zielony przycisk z myślnikiem, aby pomniejszyć; na zielone strzałki, aby przejść do map sąsiednich.


METAR-TAF: